createdAt,value
2018-04-30T00:01:52.439Z,9.20
2018-04-30T00:04:26.251Z,7.70
2018-04-30T00:07:00.530Z,9.33
2018-04-30T00:09:34.103Z,7.60
2018-04-30T00:12:07.629Z,9.00
2018-04-30T00:14:41.255Z,9.13
2018-04-30T00:17:14.767Z,10.70
2018-04-30T00:19:48.346Z,8.67
2018-04-30T00:22:21.922Z,7.57
2018-04-30T00:24:55.458Z,8.63
2018-04-30T00:27:28.946Z,8.93
2018-04-30T00:30:02.528Z,7.47
2018-04-30T00:32:36.472Z,7.87
2018-04-30T00:35:10.064Z,10.37
2018-04-30T00:37:43.566Z,11.33
2018-04-30T00:40:17.266Z,11.43
2018-04-30T00:42:50.755Z,8.80
2018-04-30T00:45:24.278Z,7.83
2018-04-30T00:47:57.867Z,10.47
2018-04-30T00:50:31.670Z,8.03
2018-04-30T00:53:05.474Z,8.33
2018-04-30T00:55:39.076Z,8.87
2018-04-30T00:58:12.881Z,9.20
2018-04-30T01:00:46.683Z,10.27
2018-04-30T01:03:20.400Z,7.27
2018-04-30T01:05:54.170Z,10.53
2018-04-30T01:08:28.109Z,11.27
2018-04-30T01:11:01.907Z,11.60
2018-04-30T01:13:35.530Z,9.93
2018-04-30T01:16:09.180Z,11.67
2018-04-30T01:18:43.128Z,11.63
2018-04-30T01:21:16.927Z,9.53
2018-04-30T01:23:50.735Z,9.63
2018-04-30T01:26:25.219Z,10.93
2018-04-30T01:28:58.790Z,11.83
2018-04-30T01:31:32.438Z,9.33
2018-04-30T01:34:06.048Z,11.37
2018-04-30T01:36:39.763Z,11.03
2018-04-30T01:39:13.479Z,16.00
2018-04-30T01:41:47.060Z,12.30
2018-04-30T01:44:20.657Z,10.50
2018-04-30T01:46:54.311Z,15.07
2018-04-30T01:49:27.965Z,10.20
2018-04-30T01:52:01.534Z,14.00
2018-04-30T01:54:35.073Z,10.77
2018-04-30T01:57:08.635Z,12.83
2018-04-30T01:59:42.198Z,9.00
2018-04-30T02:02:16.446Z,14.23
2018-04-30T02:04:50.068Z,11.60
2018-04-30T02:07:23.617Z,13.63
2018-04-30T02:09:57.183Z,10.37
2018-04-30T02:12:30.782Z,11.43
2018-04-30T02:15:04.391Z,11.23
2018-04-30T02:17:37.881Z,8.50
2018-04-30T02:20:11.471Z,12.17
2018-04-30T02:22:45.062Z,14.20
2018-04-30T02:25:19.486Z,9.83
2018-04-30T02:27:53.081Z,11.57
2018-04-30T02:30:26.821Z,11.70
2018-04-30T02:33:01.095Z,9.73
2018-04-30T02:35:34.835Z,10.27
2018-04-30T02:38:08.334Z,11.97
2018-04-30T02:40:41.920Z,10.30
2018-04-30T02:43:15.422Z,10.77
2018-04-30T02:45:49.027Z,11.90
2018-04-30T02:48:22.728Z,11.63
2018-04-30T02:50:56.642Z,14.10
2018-04-30T02:53:30.247Z,11.70
2018-04-30T02:56:04.754Z,10.50
2018-04-30T02:58:38.481Z,10.80
2018-04-30T03:01:12.775Z,10.37
2018-04-30T03:03:46.452Z,9.77
2018-04-30T03:06:20.913Z,13.60
2018-04-30T03:08:54.607Z,15.73
2018-04-30T03:11:28.118Z,12.87
2018-04-30T03:14:01.910Z,13.03
2018-04-30T03:16:35.727Z,10.70
2018-04-30T03:19:09.427Z,12.23
2018-04-30T03:21:42.987Z,10.47
2018-04-30T03:24:16.595Z,12.53
2018-04-30T03:26:50.120Z,15.50
2018-04-30T03:29:23.701Z,13.30
2018-04-30T03:31:57.245Z,11.30
2018-04-30T03:34:30.856Z,12.73
2018-04-30T03:37:04.522Z,12.80
2018-04-30T03:39:38.127Z,12.90
2018-04-30T03:42:11.630Z,13.30
2018-04-30T03:44:45.334Z,11.93
2018-04-30T03:47:19.341Z,13.03
2018-04-30T03:49:53.152Z,15.13
2018-04-30T03:52:26.954Z,13.07
2018-04-30T03:55:00.650Z,15.27
2018-04-30T03:57:34.355Z,12.90
2018-04-30T04:00:20.710Z,18.23
2018-04-30T04:03:07.128Z,19.40
2018-04-30T04:05:52.635Z,14.13
2018-04-30T04:08:27.758Z,12.40
2018-04-30T04:11:01.687Z,13.70
2018-04-30T04:13:35.323Z,12.90
2018-04-30T04:16:09.092Z,11.57
2018-04-30T04:18:43.719Z,13.63
2018-04-30T04:21:17.523Z,12.07
2018-04-30T04:23:51.226Z,15.30
2018-04-30T04:26:24.807Z,14.90
2018-04-30T04:28:59.138Z,14.73
2018-04-30T04:31:32.822Z,14.93
2018-04-30T04:34:07.329Z,13.23
2018-04-30T04:36:42.271Z,14.37
2018-04-30T04:39:15.913Z,15.47
2018-04-30T04:41:49.467Z,16.10
2018-04-30T04:44:23.082Z,17.37
2018-04-30T04:46:57.498Z,15.50
2018-04-30T04:49:31.117Z,18.60
2018-04-30T04:52:05.039Z,24.13
2018-04-30T04:54:38.765Z,22.37
2018-04-30T04:57:12.439Z,21.60
2018-04-30T04:59:46.167Z,16.17
2018-04-30T05:02:19.904Z,14.83
2018-04-30T05:04:53.646Z,14.53
2018-04-30T05:07:28.067Z,16.03
2018-04-30T05:10:01.722Z,14.57
2018-04-30T05:12:35.478Z,16.17
2018-04-30T05:15:09.282Z,14.10
2018-04-30T05:17:42.885Z,17.33
2018-04-30T05:20:16.479Z,17.33
2018-04-30T05:22:51.114Z,16.60
2018-04-30T05:25:24.670Z,16.43
2018-04-30T05:27:58.308Z,13.07
2018-04-30T05:30:32.323Z,14.57
2018-04-30T05:33:05.823Z,13.83
2018-04-30T05:35:40.218Z,15.70
2018-04-30T05:38:13.950Z,15.57
2018-04-30T05:40:47.676Z,12.17
2018-04-30T05:43:21.548Z,16.40
2018-04-30T05:45:55.215Z,11.57
2018-04-30T05:48:28.954Z,12.23
2018-04-30T05:51:03.471Z,11.20
2018-04-30T05:53:37.866Z,15.80
2018-04-30T05:56:11.606Z,17.57
2018-04-30T05:58:45.211Z,11.67
2018-04-30T06:01:18.715Z,15.27
2018-04-30T06:03:52.394Z,11.37
2018-04-30T06:06:26.220Z,12.43
2018-04-30T06:08:59.850Z,14.67
2018-04-30T06:11:34.331Z,16.87
2018-04-30T06:14:08.110Z,18.77
2018-04-30T06:16:41.842Z,12.47
2018-04-30T06:19:15.662Z,12.53
2018-04-30T06:21:49.453Z,13.60
2018-04-30T06:24:23.259Z,13.77
2018-04-30T06:26:56.902Z,14.20
2018-04-30T06:29:30.505Z,15.83
2018-04-30T06:32:04.034Z,16.47
2018-04-30T06:34:37.672Z,15.67
2018-04-30T06:37:11.478Z,18.67
2018-04-30T06:39:45.075Z,15.53
2018-04-30T06:42:18.837Z,16.83
2018-04-30T06:44:52.343Z,17.97
2018-04-30T06:47:26.106Z,19.10
2018-04-30T06:49:59.886Z,22.30
2018-04-30T06:52:33.510Z,21.20
2018-04-30T06:55:07.286Z,20.07
2018-04-30T06:57:41.100Z,23.37
2018-04-30T07:00:15.432Z,20.33
2018-04-30T07:02:49.130Z,19.73
2018-04-30T07:05:22.935Z,21.87
2018-04-30T07:07:57.238Z,22.03
2018-04-30T07:10:30.949Z,20.27
2018-04-30T07:13:04.614Z,21.07
2018-04-30T07:15:38.147Z,21.80
2018-04-30T07:18:11.772Z,20.73
2018-04-30T07:20:45.364Z,23.57
2018-04-30T07:23:19.762Z,19.70
2018-04-30T07:25:53.574Z,18.87
2018-04-30T07:28:27.190Z,17.47
2018-04-30T07:31:00.978Z,17.37
2018-04-30T07:33:35.400Z,16.03
2018-04-30T07:36:09.208Z,16.13
2018-04-30T07:38:43.707Z,20.80
2018-04-30T07:41:17.434Z,23.03
2018-04-30T07:43:51.230Z,16.03
2018-04-30T07:46:25.042Z,16.17
2018-04-30T07:48:58.731Z,12.10
2018-04-30T07:51:32.310Z,12.63
2018-04-30T07:54:07.374Z,13.43
2018-04-30T07:56:41.086Z,9.67
2018-04-30T07:59:14.888Z,6.60
2018-04-30T08:01:48.483Z,3.47
2018-04-30T08:04:22.291Z,3.47
2018-04-30T08:06:55.795Z,2.40
2018-04-30T08:09:29.376Z,2.73
2018-04-30T08:12:03.919Z,2.83
2018-04-30T08:14:37.570Z,2.60
2018-04-30T08:17:11.526Z,3.30
2018-04-30T08:19:45.051Z,3.07
2018-04-30T08:22:18.596Z,2.50
2018-04-30T08:24:52.211Z,5.13
2018-04-30T08:27:27.440Z,2.33
2018-04-30T08:30:01.009Z,3.37
2018-04-30T08:32:34.508Z,3.40
2018-04-30T08:35:08.163Z,2.00
2018-04-30T08:37:42.794Z,2.17
2018-04-30T08:40:16.798Z,1.60
2018-04-30T08:42:50.405Z,1.83
2018-04-30T08:45:24.091Z,1.40
2018-04-30T08:47:57.812Z,1.50
2018-04-30T08:50:31.610Z,1.50
2018-04-30T08:53:06.034Z,2.97
2018-04-30T08:55:39.834Z,0.70
2018-04-30T08:58:13.643Z,1.33
2018-04-30T09:00:47.452Z,0.80
2018-04-30T09:03:21.051Z,1.47
2018-04-30T09:05:55.070Z,2.00
2018-04-30T09:08:28.737Z,1.43
2018-04-30T09:11:02.375Z,1.10
2018-04-30T09:13:35.928Z,1.37
2018-04-30T09:16:09.479Z,2.70
2018-04-30T09:18:43.063Z,1.10
2018-04-30T09:21:16.876Z,0.97
2018-04-30T09:23:50.505Z,3.27
2018-04-30T09:26:24.202Z,0.83
2018-04-30T09:28:57.810Z,0.60
2018-04-30T09:31:31.687Z,1.20
2018-04-30T09:34:05.287Z,0.70
2018-04-30T09:36:38.806Z,0.50
2018-04-30T09:39:12.359Z,1.73
2018-04-30T09:41:45.862Z,0.60
2018-04-30T09:44:19.414Z,1.10
2018-04-30T09:46:53.051Z,1.90
2018-04-30T09:49:26.580Z,0.70
2018-04-30T09:52:00.168Z,2.20
2018-04-30T09:54:33.878Z,0.70
2018-04-30T09:57:07.690Z,1.97
2018-04-30T09:59:41.192Z,1.33
2018-04-30T10:02:14.892Z,1.87
2018-04-30T10:04:48.703Z,1.37
2018-04-30T10:07:23.021Z,1.30
2018-04-30T10:09:56.930Z,1.00
2018-04-30T10:12:30.734Z,3.23
2018-04-30T10:15:04.440Z,0.67
2018-04-30T10:17:38.018Z,0.73
2018-04-30T10:20:11.607Z,0.60
2018-04-30T10:22:45.302Z,2.27
2018-04-30T10:25:18.884Z,0.50
2018-04-30T10:27:52.420Z,3.37
2018-04-30T10:30:26.148Z,1.23
2018-04-30T10:32:59.919Z,2.47
2018-04-30T10:35:34.442Z,1.17
2018-04-30T10:38:08.196Z,1.50
2018-04-30T10:40:41.674Z,1.40
2018-04-30T10:43:15.369Z,0.90
2018-04-30T10:45:48.917Z,1.90
2018-04-30T10:48:22.462Z,0.80
2018-04-30T10:50:56.383Z,2.00
2018-04-30T10:53:29.970Z,1.70
2018-04-30T10:56:03.526Z,1.93
2018-04-30T10:58:37.187Z,2.00
2018-04-30T11:01:10.678Z,0.80
2018-04-30T11:03:44.479Z,1.23
2018-04-30T11:06:18.262Z,2.60
2018-04-30T11:08:52.083Z,1.13
2018-04-30T11:11:25.699Z,2.40
2018-04-30T11:13:59.406Z,1.23
2018-04-30T11:16:33.213Z,1.23
2018-04-30T11:19:07.011Z,1.97
2018-04-30T11:21:41.430Z,0.83
2018-04-30T11:24:15.242Z,3.50
2018-04-30T11:26:48.742Z,1.23
2018-04-30T11:29:22.359Z,1.30
2018-04-30T11:31:56.044Z,1.20
2018-04-30T11:34:29.578Z,1.00
2018-04-30T11:37:03.310Z,2.77
2018-04-30T11:39:38.482Z,1.50
2018-04-30T11:42:12.078Z,2.87
2018-04-30T11:44:45.689Z,1.20
2018-04-30T11:47:19.551Z,0.90
2018-04-30T11:49:53.108Z,0.90
2018-04-30T11:52:26.685Z,2.30
2018-04-30T11:55:00.375Z,2.17
2018-04-30T11:57:33.898Z,0.80
2018-04-30T12:00:07.702Z,2.60
2018-04-30T12:02:41.988Z,1.30
2018-04-30T12:05:15.757Z,1.30
2018-04-30T12:07:49.593Z,1.30
2018-04-30T12:10:23.331Z,0.80
2018-04-30T12:12:56.938Z,1.07
2018-04-30T12:15:30.638Z,0.90
2018-04-30T12:18:04.337Z,1.77
2018-04-30T12:20:38.754Z,0.80
2018-04-30T12:23:12.367Z,2.83
2018-04-30T12:25:45.915Z,6.43
2018-04-30T12:28:19.554Z,2.00
2018-04-30T12:30:53.206Z,1.80
2018-04-30T12:33:27.046Z,1.90
2018-04-30T12:36:01.404Z,2.33
2018-04-30T12:38:35.198Z,2.20
2018-04-30T12:41:08.903Z,0.80
2018-04-30T12:43:42.749Z,0.70
2018-04-30T12:46:16.300Z,1.77
2018-04-30T12:48:49.843Z,2.50
2018-04-30T12:51:23.446Z,0.70
2018-04-30T12:53:57.073Z,1.63
2018-04-30T12:56:30.628Z,2.03
2018-04-30T12:59:04.111Z,0.97
2018-04-30T13:01:37.798Z,0.97
2018-04-30T13:04:11.294Z,2.07
2018-04-30T13:06:45.006Z,2.47
2018-04-30T13:09:18.818Z,0.70
2018-04-30T13:11:53.156Z,2.77
2018-04-30T13:14:26.835Z,1.03
2018-04-30T13:17:00.418Z,2.77
2018-04-30T13:19:34.850Z,3.30
2018-04-30T13:22:08.373Z,1.10
2018-04-30T13:24:42.057Z,1.73
2018-04-30T13:27:15.581Z,0.90
2018-04-30T13:29:49.258Z,1.23
2018-04-30T13:32:23.057Z,6.27
2018-04-30T13:34:57.352Z,1.50
2018-04-30T13:37:31.287Z,0.87
2018-04-30T13:40:04.887Z,1.43
2018-04-30T13:42:38.655Z,1.03
2018-04-30T13:45:12.290Z,0.87
2018-04-30T13:47:45.897Z,2.60
2018-04-30T13:50:19.500Z,2.13
2018-04-30T13:52:53.099Z,1.70
2018-04-30T13:55:27.378Z,1.53
2018-04-30T13:58:01.334Z,4.37
2018-04-30T14:00:35.132Z,1.30
2018-04-30T14:03:08.930Z,1.37
2018-04-30T14:05:42.606Z,2.27
2018-04-30T14:08:16.323Z,2.47
2018-04-30T14:10:49.943Z,2.43
2018-04-30T14:13:23.534Z,0.80
2018-04-30T14:15:57.351Z,3.00
2018-04-30T14:18:31.156Z,4.10
2018-04-30T14:21:04.750Z,3.33
2018-04-30T14:23:38.562Z,2.77
2018-04-30T14:26:12.160Z,0.90
2018-04-30T14:28:45.973Z,0.90
2018-04-30T14:31:20.263Z,0.90
2018-04-30T14:33:53.795Z,3.50
2018-04-30T14:36:27.587Z,1.73
2018-04-30T14:39:01.245Z,2.10
2018-04-30T14:41:35.057Z,2.23
2018-04-30T14:44:08.795Z,1.63
2018-04-30T14:46:42.294Z,2.23
2018-04-30T14:49:15.995Z,2.13
2018-04-30T14:51:49.497Z,3.40
2018-04-30T14:54:23.010Z,3.70
2018-04-30T14:56:56.599Z,2.13
2018-04-30T14:59:30.893Z,1.37
2018-04-30T15:02:05.320Z,0.70
2018-04-30T15:04:40.354Z,1.00
2018-04-30T15:07:15.382Z,5.00
2018-04-30T15:09:49.107Z,3.33
2018-04-30T15:12:22.699Z,1.37
2018-04-30T15:14:56.311Z,2.83
2018-04-30T15:17:30.123Z,2.77
2018-04-30T15:20:03.628Z,1.03
2018-04-30T15:22:38.139Z,2.00
2018-04-30T15:25:11.787Z,5.90
2018-04-30T15:27:45.334Z,1.43
2018-04-30T15:30:19.029Z,0.53
2018-04-30T15:32:52.606Z,3.27
2018-04-30T15:35:26.348Z,0.57
2018-04-30T15:37:59.947Z,1.03
2018-04-30T15:40:33.559Z,2.70
2018-04-30T15:43:07.236Z,2.20
2018-04-30T15:45:40.947Z,5.57
2018-04-30T15:48:14.434Z,2.10
2018-04-30T15:50:48.030Z,3.53
2018-04-30T15:53:21.751Z,5.03
2018-04-30T15:55:55.450Z,1.43
2018-04-30T15:58:29.054Z,2.20
2018-04-30T16:01:02.623Z,1.90
2018-04-30T16:03:36.158Z,2.10
2018-04-30T16:06:09.663Z,1.17
2018-04-30T16:08:43.222Z,1.83
2018-04-30T16:11:16.959Z,5.80
2018-04-30T16:13:50.558Z,4.17
2018-04-30T16:16:24.365Z,1.67
2018-04-30T16:18:57.957Z,1.80
2018-04-30T16:21:32.587Z,0.60
2018-04-30T16:24:06.395Z,2.30
2018-04-30T16:26:39.878Z,0.87
2018-04-30T16:29:13.437Z,1.37
2018-04-30T16:31:46.999Z,2.40
2018-04-30T16:34:20.679Z,2.60
2018-04-30T16:36:54.398Z,2.70
2018-04-30T16:39:28.018Z,1.77
2018-04-30T16:42:02.275Z,0.57
2018-04-30T16:44:36.226Z,4.27
2018-04-30T16:47:10.070Z,0.80
2018-04-30T16:49:43.622Z,3.63
2018-04-30T16:52:17.435Z,2.20
2018-04-30T16:54:51.859Z,1.63
2018-04-30T16:57:25.468Z,1.73
2018-04-30T16:59:59.078Z,1.63
2018-04-30T17:02:32.664Z,0.73
2018-04-30T17:05:06.282Z,0.73
2018-04-30T17:07:39.969Z,1.47
2018-04-30T17:10:15.094Z,0.87
2018-04-30T17:12:49.398Z,2.10
2018-04-30T17:15:23.039Z,1.83
2018-04-30T17:17:56.726Z,2.87
2018-04-30T17:20:30.534Z,1.57
2018-04-30T17:23:04.333Z,1.00
2018-04-30T17:25:37.937Z,0.93
2018-04-30T17:28:11.539Z,0.70
2018-04-30T17:30:45.238Z,2.67
2018-04-30T17:33:18.754Z,4.27
2018-04-30T17:35:52.355Z,1.73
2018-04-30T17:38:26.149Z,2.53
2018-04-30T17:40:59.976Z,0.60
2018-04-30T17:43:33.755Z,4.10
2018-04-30T17:46:07.404Z,0.50
2018-04-30T17:48:41.169Z,0.60
2018-04-30T17:51:14.968Z,2.77
2018-04-30T17:53:48.777Z,2.87
2018-04-30T17:56:23.198Z,3.53
2018-04-30T17:58:56.795Z,1.23
2018-04-30T18:01:31.418Z,0.47
2018-04-30T18:04:05.074Z,2.50
2018-04-30T18:06:38.822Z,0.70
2018-04-30T18:09:12.520Z,2.13
2018-04-30T18:11:46.230Z,3.10
2018-04-30T18:14:19.897Z,0.63
2018-04-30T18:16:53.464Z,1.80
2018-04-30T18:19:27.034Z,0.30
2018-04-30T18:22:00.818Z,3.03
2018-04-30T18:24:34.334Z,4.10
2018-04-30T18:27:07.923Z,2.73
2018-04-30T18:29:41.642Z,0.47
2018-04-30T18:32:16.267Z,0.90
2018-04-30T18:34:49.947Z,0.30
2018-04-30T18:37:23.874Z,2.30
2018-04-30T18:39:57.751Z,1.60
2018-04-30T18:42:31.322Z,0.40
2018-04-30T18:45:05.589Z,0.50
2018-04-30T18:47:39.270Z,2.00
2018-04-30T18:50:13.731Z,0.80
2018-04-30T18:52:48.022Z,0.50
2018-04-30T18:55:21.680Z,0.73
2018-04-30T18:57:55.348Z,1.50
2018-04-30T19:00:29.147Z,1.70
2018-04-30T19:03:02.958Z,0.50
2018-04-30T19:05:36.761Z,0.77
2018-04-30T19:08:11.185Z,2.10
2018-04-30T19:10:45.606Z,1.20
2018-04-30T19:13:19.295Z,0.60
2018-04-30T19:15:52.834Z,0.60
2018-04-30T19:18:26.812Z,2.00
2018-04-30T19:21:00.418Z,0.87
2018-04-30T19:23:34.302Z,1.43
2018-04-30T19:26:08.772Z,0.20
2018-04-30T19:28:42.470Z,0.40
2018-04-30T19:31:16.246Z,0.40
2018-04-30T19:33:50.113Z,1.33
2018-04-30T19:36:23.703Z,1.47
2018-04-30T19:38:57.466Z,0.40
2018-04-30T19:41:31.267Z,0.30
2018-04-30T19:44:04.945Z,0.50
2018-04-30T19:46:38.498Z,0.40
2018-04-30T19:49:12.074Z,0.93
2018-04-30T19:51:45.877Z,1.20
2018-04-30T19:54:20.294Z,0.50
2018-04-30T19:56:53.914Z,0.30
2018-04-30T19:59:27.578Z,1.03
2018-04-30T20:02:01.394Z,1.60
2018-04-30T20:04:35.110Z,0.30
2018-04-30T20:07:08.715Z,0.50
2018-04-30T20:09:42.382Z,1.47
2018-04-30T20:12:15.959Z,0.53
2018-04-30T20:14:49.521Z,1.70
2018-04-30T20:17:23.518Z,1.70
2018-04-30T20:19:57.122Z,0.80
2018-04-30T20:22:30.725Z,0.57
2018-04-30T20:25:04.328Z,1.00
2018-04-30T20:27:38.628Z,0.53
2018-04-30T20:30:12.558Z,0.57
2018-04-30T20:32:46.426Z,1.90
2018-04-30T20:35:21.052Z,2.93
2018-04-30T20:37:54.625Z,1.13
2018-04-30T20:40:28.481Z,0.70
2018-04-30T20:43:02.188Z,0.40
2018-04-30T20:45:35.768Z,0.50
2018-04-30T20:48:09.294Z,1.20
2018-04-30T20:50:42.891Z,0.90
2018-04-30T20:53:16.565Z,1.10
2018-04-30T20:55:50.066Z,0.40
2018-04-30T20:58:25.110Z,1.60
2018-04-30T21:00:58.839Z,2.97
2018-04-30T21:03:32.435Z,0.50
2018-04-30T21:06:06.137Z,0.40
2018-04-30T21:08:51.706Z,0.87
2018-04-30T21:11:25.518Z,0.77
2018-04-30T21:13:59.131Z,0.43
2018-04-30T21:16:32.626Z,3.10
2018-04-30T21:19:06.191Z,0.40
2018-04-30T21:21:39.797Z,0.40
2018-04-30T21:24:14.406Z,0.70
2018-04-30T21:26:48.024Z,0.50
2018-04-30T21:29:21.635Z,0.67
2018-04-30T21:31:55.563Z,0.67
2018-04-30T21:34:29.980Z,0.40
2018-04-30T21:37:03.695Z,0.70
2018-04-30T21:39:37.390Z,0.57
2018-04-30T21:42:10.983Z,0.57
2018-04-30T21:44:44.604Z,1.13
2018-04-30T21:47:18.225Z,4.80
2018-04-30T21:49:51.995Z,2.40
2018-04-30T21:52:25.602Z,0.80
2018-04-30T21:54:59.404Z,0.63
2018-04-30T21:57:33.000Z,0.97
2018-04-30T22:00:06.627Z,0.63
2018-04-30T22:02:40.455Z,0.57
2018-04-30T22:05:14.102Z,1.93
2018-04-30T22:07:47.688Z,0.60
2018-04-30T22:10:21.418Z,2.47
2018-04-30T22:12:55.288Z,2.47
2018-04-30T22:15:29.850Z,0.77
2018-04-30T22:18:03.522Z,2.47
2018-04-30T22:20:37.247Z,1.03
2018-04-30T22:23:10.748Z,4.37
2018-04-30T22:25:44.457Z,1.73
2018-04-30T22:28:18.055Z,1.27
2018-04-30T22:30:51.778Z,2.13
2018-04-30T22:33:25.690Z,0.60
2018-04-30T22:35:59.474Z,3.40
2018-04-30T22:38:33.070Z,1.43
2018-04-30T22:41:06.639Z,0.30
2018-04-30T22:43:40.164Z,1.27
2018-04-30T22:46:13.866Z,5.10
2018-04-30T22:48:47.526Z,3.13
2018-04-30T22:51:21.172Z,7.30
2018-04-30T22:53:54.669Z,2.80
2018-04-30T22:56:28.407Z,1.10
2018-04-30T22:59:02.088Z,1.97
2018-04-30T23:01:37.327Z,3.50
2018-04-30T23:04:10.806Z,5.53
2018-04-30T23:06:44.402Z,0.60
2018-04-30T23:09:18.126Z,1.07
2018-04-30T23:11:52.552Z,1.50
2018-04-30T23:14:27.040Z,1.50
2018-04-30T23:17:00.578Z,0.23
2018-04-30T23:19:34.170Z,1.70
2018-04-30T23:22:07.967Z,2.23
2018-04-30T23:24:41.778Z,2.13
2018-04-30T23:27:15.374Z,4.10
2018-04-30T23:29:49.079Z,1.27
2018-04-30T23:32:22.610Z,1.03
2018-04-30T23:34:56.182Z,0.20
2018-04-30T23:37:30.608Z,3.10
2018-04-30T23:40:04.198Z,6.10
2018-04-30T23:42:38.010Z,1.07
2018-04-30T23:45:11.878Z,1.33
2018-04-30T23:47:46.956Z,0.80
2018-04-30T23:50:21.341Z,0.30
2018-04-30T23:52:55.072Z,0.67
2018-04-30T23:55:30.307Z,1.70
2018-04-30T23:58:04.119Z,5.30
